Time;durP1;ratioP1;P1;durP2;ratioP2;P2;SDS_P1;SDS_P2;PMS_P1;PMS_P2;Temp;Humidity;BMP_temperature;BMP_pressure;BME280_temperature;BME280_humidity;BME280_pressure;Samples;Min_cycle;Max_cycle;Signal;HPM_P1;HPM_P2
2022/02/24 00:01:30;;;;;;;;;;;;;;;26.32;26.55;101193.91;5075778;28;968;-34
2022/02/24 00:03:55;;;;;;;;;;;;;;;26.36;26.60;101194.44;5078599;28;1949;-35
2022/02/24 00:06:22;;;;;;;;;;;;;;;27.19;25.51;101194.41;5079909;28;832;-35
2022/02/24 00:08:47;;;;;;;;;;;;;;;27.15;25.26;101195.75;5079652;28;1622;-35
2022/02/24 00:11:13;;;;;;;;;;;;;;;27.13;25.41;101189.66;5078612;28;755;-35
2022/02/24 00:13:38;;;;;;;;;;;;;;;27.21;25.77;101186.94;5077605;28;765;-35
2022/02/24 00:16:03;;;;;;;;;;;;;;;27.22;25.47;101185.97;5094688;28;919;-34
2022/02/24 00:18:29;;;;;;;;;;;;;;;27.57;24.94;101184.81;5079882;28;750;-35
2022/02/24 00:20:54;;;;;;;;;;;;;;;27.75;24.77;101184.59;5079845;28;785;-35
2022/02/24 00:23:19;;;;;;;;;;;;;;;27.07;25.43;101193.91;5079360;28;824;-34
2022/02/24 00:25:45;;;;;;;;;;;;;;;26.59;26.06;101189.19;5079161;28;1967;-42
2022/02/24 00:28:10;;;;;;;;;;;;;;;26.74;25.88;101189.34;5079860;28;852;-35
2022/02/24 00:30:35;;;;;;;;;;;;;;;26.96;25.38;101191.56;5076518;28;1303;-35
2022/02/24 00:33:01;;;;;;;;;;;;;;;26.55;26.21;101195.94;5078995;28;1123;-35
2022/02/24 00:35:26;;;;;;;;;;;;;;;26.50;26.24;101188.38;5079610;28;779;-35
2022/02/24 00:37:51;;;;;;;;;;;;;;;26.45;26.14;101185.34;5075913;28;795;-36
2022/02/24 00:40:17;;;;;;;;;;;;;;;26.44;26.34;101183.66;5079077;28;816;-35
2022/02/24 00:42:42;;;;;;;;;;;;;;;26.38;26.18;101177.06;5079713;28;886;-35
2022/02/24 00:45:07;;;;;;;;;;;;;;;26.44;26.20;101175.56;5079385;28;1967;-35
2022/02/24 00:47:33;;;;;;;;;;;;;;;26.43;26.13;101170.31;5078681;28;852;-36
2022/02/24 00:49:58;;;;;;;;;;;;;;;26.51;26.14;101173.00;5078676;28;884;-34
2022/02/24 00:52:23;;;;;;;;;;;;;;;26.50;25.90;101176.72;5079413;28;860;-34
2022/02/24 00:54:49;;;;;;;;;;;;;;;26.34;26.22;101170.31;5078856;28;845;-34
2022/02/24 00:57:14;;;;;;;;;;;;;;;26.33;26.33;101163.22;5079419;28;827;-34
2022/02/24 00:59:39;;;;;;;;;;;;;;;26.39;26.32;101165.25;5079398;28;777;-34
2022/02/24 01:02:05;;;;;;;;;;;;;;;26.37;26.45;101166.44;5076219;28;1022;-35
2022/02/24 01:04:30;;;;;;;;;;;;;;;26.26;26.56;101163.03;5079053;28;1893;-34
2022/02/24 01:06:55;;;;;;;;;;;;;;;26.36;26.15;101162.06;5078922;28;887;-35
2022/02/24 01:09:20;;;;;;;;;;;;;;;26.25;26.38;101161.34;5078630;28;745;-34
2022/02/24 01:11:46;;;;;;;;;;;;;;;26.31;26.29;101167.09;5079047;28;884;-35
2022/02/24 01:14:11;;;;;;;;;;;;;;;26.27;26.41;101164.72;5078923;28;785;-35
2022/02/24 01:16:36;;;;;;;;;;;;;;;27.03;25.48;101170.97;5076030;28;843;-35
2022/02/24 01:19:02;;;;;;;;;;;;;;;27.04;25.34;101174.53;5078866;28;742;-35
2022/02/24 01:21:27;;;;;;;;;;;;;;;27.10;25.54;101181.91;5078905;28;785;-35
2022/02/24 01:23:52;;;;;;;;;;;;;;;27.18;25.09;101176.50;5078658;28;1901;-34
2022/02/24 01:26:18;;;;;;;;;;;;;;;27.30;25.10;101178.81;5078779;28;872;-35
2022/02/24 01:28:43;;;;;;;;;;;;;;;27.36;24.92;101178.97;5074899;28;853;-34
2022/02/24 01:31:08;;;;;;;;;;;;;;;27.56;25.06;101186.66;5076465;28;879;-35
2022/02/24 01:33:34;;;;;;;;;;;;;;;26.84;25.39;101185.66;5078299;28;1337;-35
2022/02/24 01:35:59;;;;;;;;;;;;;;;26.64;25.68;101184.13;5076619;28;1163;-34
2022/02/24 01:38:24;;;;;;;;;;;;;;;26.64;26.18;101184.13;5077990;28;809;-35
2022/02/24 01:40:49;;;;;;;;;;;;;;;27.15;25.12;101187.66;5077896;28;799;-34
2022/02/24 01:43:15;;;;;;;;;;;;;;;26.72;25.53;101180.63;5077079;28;1258;-34
2022/02/24 01:45:40;;;;;;;;;;;;;;;26.49;26.14;101189.38;5074613;28;1950;-34
2022/02/24 01:48:05;;;;;;;;;;;;;;;26.51;25.86;101191.88;5076461;28;825;-34
2022/02/24 01:50:31;;;;;;;;;;;;;;;26.42;25.83;101182.97;5078175;28;1480;-35
2022/02/24 01:52:56;;;;;;;;;;;;;;;26.47;26.23;101194.09;5077698;28;754;-35
2022/02/24 01:55:21;;;;;;;;;;;;;;;26.35;26.31;101185.50;5075151;28;1053;-35
2022/02/24 01:57:48;;;;;;;;;;;;;;;26.33;26.55;101186.66;5077969;28;824;-35
2022/02/24 02:00:14;;;;;;;;;;;;;;;26.36;26.20;101183.66;5077936;28;809;-35
2022/02/24 02:02:39;;;;;;;;;;;;;;;26.39;26.05;101189.53;5077981;28;786;-34
2022/02/24 02:05:05;;;;;;;;;;;;;;;26.34;26.12;101186.50;5077753;28;1968;-35
2022/02/24 02:07:31;;;;;;;;;;;;;;;26.37;26.23;101190.72;5071270;28;1213;-34
2022/02/24 02:09:56;;;;;;;;;;;;;;;26.38;26.06;101187.00;5077077;28;832;-35
2022/02/24 02:12:21;;;;;;;;;;;;;;;26.38;26.22;101193.25;5076146;28;1387;-35
2022/02/24 02:14:47;;;;;;;;;;;;;;;26.31;26.36;101184.09;5077288;28;893;-35
2022/02/24 02:17:12;;;;;;;;;;;;;;;26.19;26.35;101186.28;5077403;28;794;-35
2022/02/24 02:19:37;;;;;;;;;;;;;;;26.17;26.61;101186.44;5077254;28;741;-35
2022/02/24 02:22:03;;;;;;;;;;;;;;;26.19;26.51;101172.81;5092431;28;928;-35
2022/02/24 02:24:28;;;;;;;;;;;;;;;26.71;25.76;101178.91;5077258;28;1977;-34
2022/02/24 02:26:54;;;;;;;;;;;;;;;27.31;24.90;101180.53;5076740;28;874;-35
2022/02/24 02:29:19;;;;;;;;;;;;;;;27.07;25.55;101174.16;5076794;28;834;-34
2022/02/24 02:31:44;;;;;;;;;;;;;;;27.12;25.41;101171.78;5070158;28;1183;-35
2022/02/24 02:34:11;;;;;;;;;;;;;;;27.24;25.35;101177.69;5076409;28;790;-35
2022/02/24 02:36:36;;;;;;;;;;;;;;;27.04;25.29;101178.06;5077057;28;828;-35
2022/02/24 02:39:02;;;;;;;;;;;;;;;27.19;25.44;101178.19;5077454;28;929;-34
2022/02/24 02:41:28;;;;;;;;;;;;;;;27.16;25.41;101180.41;5076871;28;790;-34
2022/02/24 02:43:53;;;;;;;;;;;;;;;27.04;25.08;101183.47;5075044;28;1898;-35
2022/02/24 02:46:19;;;;;;;;;;;;;;;26.52;26.02;101178.25;5076364;28;1089;-35
2022/02/24 02:48:44;;;;;;;;;;;;;;;26.43;26.27;101175.69;5076973;28;854;-34
2022/02/24 02:51:09;;;;;;;;;;;;;;;27.05;25.45;101185.16;5077094;28;745;-35
2022/02/24 02:53:34;;;;;;;;;;;;;;;26.62;25.64;101178.09;5076363;28;853;-34
2022/02/24 02:56:00;;;;;;;;;;;;;;;26.43;26.02;101183.78;5077038;28;820;-35
2022/02/24 02:58:25;;;;;;;;;;;;;;;26.37;26.34;101185.31;5069687;28;1397;-34
2022/02/24 03:00:50;;;;;;;;;;;;;;;26.41;25.92;101182.13;5074747;28;879;-35
2022/02/24 03:03:16;;;;;;;;;;;;;;;26.38;26.17;101179.75;5076584;28;877;-35
2022/02/24 03:05:41;;;;;;;;;;;;;;;26.31;26.22;101181.41;5076485;28;1910;-35
2022/02/24 03:08:07;;;;;;;;;;;;;;;26.35;25.99;101185.50;5076074;28;931;-35
2022/02/24 03:10:33;;;;;;;;;;;;;;;26.35;26.01;101190.88;5076408;28;812;-35
2022/02/24 03:12:58;;;;;;;;;;;;;;;26.28;26.17;101187.13;5076411;28;889;-35
2022/02/24 03:15:23;;;;;;;;;;;;;;;26.30;26.17;101187.81;5075222;28;909;-35
2022/02/24 03:17:49;;;;;;;;;;;;;;;26.28;26.29;101187.13;5074801;28;1114;-35
2022/02/24 03:20:15;;;;;;;;;;;;;;;26.34;26.34;101189.19;5076775;28;814;-35
2022/02/24 03:22:40;;;;;;;;;;;;;;;26.22;26.31;101190.50;5071027;28;834;-34
2022/02/24 03:25:05;;;;;;;;;;;;;;;26.26;26.11;101191.84;5075760;28;1906;-35
2022/02/24 03:27:31;;;;;;;;;;;;;;;26.27;26.26;101193.53;5076712;28;714;-35
2022/02/24 03:29:56;;;;;;;;;;;;;;;26.18;26.26;101184.59;5076226;28;820;-35
2022/02/24 03:32:21;;;;;;;;;;;;;;;26.20;26.02;101190.66;5076108;28;1261;-34
2022/02/24 03:34:48;;;;;;;;;;;;;;;26.18;26.16;101189.97;5076101;28;987;-34
2022/02/24 03:37:13;;;;;;;;;;;;;;;26.67;25.66;101198.31;5073303;28;887;-34
2022/02/24 03:39:38;;;;;;;;;;;;;;;27.19;24.74;101197.09;5075857;28;813;-35
2022/02/24 03:42:04;;;;;;;;;;;;;;;27.20;25.04;101200.63;5076071;28;770;-35
2022/02/24 03:44:29;;;;;;;;;;;;;;;26.88;25.29;101203.19;5074029;28;1890;-34
2022/02/24 03:46:55;;;;;;;;;;;;;;;27.38;24.96;101201.25;5076111;28;803;-34
2022/02/24 03:49:20;;;;;;;;;;;;;;;27.30;25.01;101203.13;5070208;28;900;-35
2022/02/24 03:51:45;;;;;;;;;;;;;;;27.55;24.42;101193.09;5075805;28;778;-35
2022/02/24 03:54:11;;;;;;;;;;;;;;;27.40;24.75;101209.19;5076337;28;810;-35
2022/02/24 03:56:36;;;;;;;;;;;;;;;27.02;24.82;101207.94;5076178;28;742;-35
2022/02/24 03:59:01;;;;;;;;;;;;;;;26.60;25.75;101206.25;5075895;28;777;-35
2022/02/24 04:01:27;;;;;;;;;;;;;;;26.55;25.89;101203.19;5075586;28;847;-34
2022/02/24 04:03:52;;;;;;;;;;;;;;;27.13;25.04;101206.72;5075857;28;1890;-35
2022/02/24 04:06:17;;;;;;;;;;;;;;;26.61;25.43;101207.94;5075571;28;869;-35
2022/02/24 04:08:43;;;;;;;;;;;;;;;26.41;25.95;101208.25;5076246;28;802;-35
2022/02/24 04:11:08;;;;;;;;;;;;;;;26.37;25.64;101209.59;5084057;28;1007;-35
2022/02/24 04:13:33;;;;;;;;;;;;;;;26.35;25.98;101211.63;5075496;28;832;-35
2022/02/24 04:15:58;;;;;;;;;;;;;;;26.32;25.88;101209.22;5075872;28;835;-34
2022/02/24 04:18:24;;;;;;;;;;;;;;;26.38;25.86;101216.66;5075431;28;901;-35
2022/02/24 04:20:49;;;;;;;;;;;;;;;26.35;25.86;101212.47;5075337;28;812;-35
2022/02/24 04:23:14;;;;;;;;;;;;;;;26.28;26.03;101214.94;5075755;28;1441;-33
2022/02/24 04:25:40;;;;;;;;;;;;;;;26.28;25.67;101214.09;5075637;28;1967;-35
2022/02/24 04:28:05;;;;;;;;;;;;;;;25.47;23.25;101214.47;5075220;28;871;-45
2022/02/24 04:30:30;;;;;;;;;;;;;;;24.97;22.95;101212.34;5073954;28;807;-42
2022/02/24 04:32:56;;;;;;;;;;;;;;;24.71;22.91;101213.09;5075354;28;1204;-45
2022/02/24 04:35:21;;;;;;;;;;;;;;;24.53;23.01;101221.19;5075668;28;794;-45
2022/02/24 04:37:46;;;;;;;;;;;;;;;24.33;23.24;101219.50;5075951;28;801;-42
2022/02/24 04:40:11;;;;;;;;;;;;;;;24.17;23.34;101220.16;5070322;28;949;-45
2022/02/24 04:42:37;;;;;;;;;;;;;;;24.18;23.52;101223.69;5075266;28;1217;-44
2022/02/24 04:45:02;;;;;;;;;;;;;;;24.48;23.91;101218.94;5076054;28;1917;-44
2022/02/24 04:47:28;;;;;;;;;;;;;;;24.95;23.54;101230.47;5069792;28;986;-42
2022/02/24 04:49:53;;;;;;;;;;;;;;;25.40;22.81;101222.34;5072341;28;817;-41
2022/02/24 04:52:18;;;;;;;;;;;;;;;24.78;23.38;101230.31;5078772;28;837;-44
2022/02/24 04:54:44;;;;;;;;;;;;;;;24.50;23.28;101238.47;5078864;28;786;-41
2022/02/24 04:57:09;;;;;;;;;;;;;;;24.36;24.09;101242.53;5079063;28;988;-41
2022/02/24 04:59:34;;;;;;;;;;;;;;;24.70;23.22;101244.56;5079647;28;1355;-44
2022/02/24 05:02:00;;;;;;;;;;;;;;;24.70;23.77;101249.94;5075652;28;944;-44
2022/02/24 05:04:25;;;;;;;;;;;;;;;23.16;24.18;101249.34;5075222;28;1961;-43
2022/02/24 05:06:50;;;;;;;;;;;;;;;23.56;23.59;101260.00;5078716;28;793;-44
2022/02/24 05:09:16;;;;;;;;;;;;;;;23.73;23.39;101259.25;5078608;28;822;-45
2022/02/24 05:11:41;;;;;;;;;;;;;;;23.33;23.76;101271.06;5079001;28;726;-44
2022/02/24 05:14:07;;;;;;;;;;;;;;;23.64;23.45;101261.97;5078305;28;793;-44
2022/02/24 05:16:32;;;;;;;;;;;;;;;23.97;23.51;101273.16;5077516;28;938;-44
2022/02/24 05:18:57;;;;;;;;;;;;;;;23.12;23.52;101266.75;5078333;28;831;-43
2022/02/24 05:21:22;;;;;;;;;;;;;;;23.43;23.45;101265.72;5076280;28;1127;-44
2022/02/24 05:23:48;;;;;;;;;;;;;;;23.19;23.57;101267.84;5077783;28;1894;-43
2022/02/24 05:26:13;;;;;;;;;;;;;;;23.09;23.35;101267.84;5078152;28;1505;-44
2022/02/24 05:28:38;;;;;;;;;;;;;;;22.91;23.68;101265.06;5071720;28;1288;-44
2022/02/24 05:31:04;;;;;;;;;;;;;;;23.26;23.42;101269.94;5067616;28;1351;-44
2022/02/24 05:33:30;;;;;;;;;;;;;;;23.39;23.06;101277.72;5078425;28;1067;-41
2022/02/24 05:35:55;;;;;;;;;;;;;;;23.35;23.44;101279.84;5078196;28;885;-44
2022/02/24 05:38:20;;;;;;;;;;;;;;;23.19;23.67;101283.13;5078975;28;766;-44
2022/02/24 05:40:46;;;;;;;;;;;;;;;23.43;23.65;101292.56;5075826;28;1091;-44
2022/02/24 05:43:11;;;;;;;;;;;;;;;23.16;23.71;101288.75;5076723;28;1027;-42
2022/02/24 05:45:36;;;;;;;;;;;;;;;22.99;23.96;101297.38;5071398;28;1910;-43
2022/02/24 05:48:02;;;;;;;;;;;;;;;23.03;24.26;101294.41;5078305;28;825;-43
2022/02/24 05:50:27;;;;;;;;;;;;;;;23.19;23.90;101293.84;5076621;28;1150;-43
2022/02/24 05:52:52;;;;;;;;;;;;;;;23.33;23.55;101301.47;5071450;28;1015;-43
2022/02/24 05:55:18;;;;;;;;;;;;;;;23.45;23.86;101304.00;5071328;28;1073;-43
2022/02/24 05:57:43;;;;;;;;;;;;;;;23.60;23.02;101312.44;5077248;28;893;-43
2022/02/24 06:00:09;;;;;;;;;;;;;;;23.50;23.91;101317.00;5077493;28;818;-41
2022/02/24 06:02:34;;;;;;;;;;;;;;;24.40;23.07;101313.84;5077157;28;962;-43
2022/02/24 06:04:59;;;;;;;;;;;;;;;24.25;23.03;101324.25;5077422;28;1906;-42
2022/02/24 06:07:25;;;;;;;;;;;;;;;24.33;23.59;101323.50;5076924;28;968;-43
2022/02/24 06:09:50;;;;;;;;;;;;;;;24.55;23.06;101327.63;5077556;28;867;-43
2022/02/24 06:12:15;;;;;;;;;;;;;;;24.08;22.35;101329.41;5077232;28;882;-43
2022/02/24 06:14:40;;;;;;;;;;;;;;;23.06;23.69;101329.88;5077724;28;792;-39
2022/02/24 06:17:06;;;;;;;;;;;;;;;24.85;22.45;101340.00;5072199;28;805;-41
2022/02/24 06:19:31;;;;;;;;;;;;;;;25.26;21.68;101339.56;5077366;28;754;-41
2022/02/24 06:21:57;;;;;;;;;;;;;;;25.35;21.39;101343.16;5074075;28;850;-40
2022/02/24 06:24:22;;;;;;;;;;;;;;;25.46;21.38;101348.28;5077542;28;1910;-40
2022/02/24 06:26:47;;;;;;;;;;;;;;;25.50;20.94;101344.31;5077341;28;968;-40
2022/02/24 06:29:13;;;;;;;;;;;;;;;25.44;21.25;101359.22;5077667;28;829;-40
2022/02/24 06:31:39;;;;;;;;;;;;;;;25.56;20.69;101361.66;5077169;28;801;-40
2022/02/24 06:34:05;;;;;;;;;;;;;;;25.33;20.73;101351.41;5071129;28;1122;-41
2022/02/24 06:36:30;;;;;;;;;;;;;;;24.56;21.36;101350.81;5077641;28;840;-40
2022/02/24 06:38:56;;;;;;;;;;;;;;;24.19;21.97;101346.38;5077423;28;761;-38
2022/02/24 06:41:21;;;;;;;;;;;;;;;24.86;21.19;101360.56;5075522;28;888;-39
2022/02/24 06:43:46;;;;;;;;;;;;;;;24.99;20.93;101347.56;5076031;28;1983;-41
2022/02/24 06:46:13;;;;;;;;;;;;;;;25.25;22.70;101344.13;5071125;28;1527;-41
2022/02/24 06:48:39;;;;;;;;;;;;;;;25.67;22.98;101353.34;5074713;28;1419;-41
2022/02/24 06:51:04;;;;;;;;;;;;;;;26.09;23.44;101361.66;5071601;28;1378;-41
2022/02/24 06:53:29;;;;;;;;;;;;;;;25.85;23.34;101362.38;5075815;28;1274;-41
2022/02/24 06:55:54;;;;;;;;;;;;;;;26.18;23.91;101357.16;5075384;28;1523;-41
2022/02/24 06:58:20;;;;;;;;;;;;;;;26.55;23.53;101362.38;5076010;28;1403;-42
2022/02/24 07:00:45;;;;;;;;;;;;;;;26.39;23.37;101361.34;5073990;28;1357;-42
2022/02/24 07:03:10;;;;;;;;;;;;;;;26.06;24.42;101356.59;5076229;28;1194;-41
2022/02/24 07:05:36;;;;;;;;;;;;;;;25.94;24.91;101364.16;5076757;28;1901;-42
2022/02/24 07:08:02;;;;;;;;;;;;;;;25.89;24.73;101364.59;5076121;28;1206;-41
2022/02/24 07:10:27;;;;;;;;;;;;;;;25.81;24.87;101359.16;5073470;28;1246;-41
2022/02/24 07:12:52;;;;;;;;;;;;;;;25.99;25.10;101358.25;5074356;28;1290;-41
2022/02/24 07:15:18;;;;;;;;;;;;;;;25.93;24.86;101362.44;5075939;28;1415;-41
2022/02/24 07:17:44;;;;;;;;;;;;;;;26.09;24.86;101364.38;5074758;28;1597;-42
2022/02/24 07:20:10;;;;;;;;;;;;;;;25.78;24.86;101365.72;5075242;28;1210;-43
2022/02/24 07:22:35;;;;;;;;;;;;;;;25.77;24.86;101360.50;5075517;28;1283;-44
2022/02/24 07:25:00;;;;;;;;;;;;;;;25.84;24.98;101366.94;5074740;28;1929;-42
2022/02/24 07:27:26;;;;;;;;;;;;;;;25.76;25.19;101361.47;5070723;28;1348;-42
2022/02/24 07:29:51;;;;;;;;;;;;;;;25.73;25.16;101365.34;5076809;28;741;-42
2022/02/24 07:32:16;;;;;;;;;;;;;;;25.71;25.10;101353.88;5071867;28;1530;-42
2022/02/24 07:34:42;;;;;;;;;;;;;;;25.92;25.04;101356.19;5074847;28;1388;-42
2022/02/24 07:37:07;;;;;;;;;;;;;;;25.87;25.58;101360.38;5072990;28;1158;-43
2022/02/24 07:39:32;;;;;;;;;;;;;;;25.83;25.18;101365.25;5074987;28;1198;-42
2022/02/24 07:41:58;;;;;;;;;;;;;;;25.89;25.53;101358.38;5072934;28;1365;-42
2022/02/24 07:44:23;;;;;;;;;;;;;;;25.83;25.59;101359.00;5068085;28;1985;-42
2022/02/24 07:46:49;;;;;;;;;;;;;;;25.76;25.52;101359.66;5072476;28;1289;-42
2022/02/24 07:49:15;;;;;;;;;;;;;;;25.85;25.77;101362.38;5066396;28;1097;-42
2022/02/24 07:51:40;;;;;;;;;;;;;;;25.81;25.68;101361.84;5059805;28;1350;-43
2022/02/24 07:54:05;;;;;;;;;;;;;;;26.35;25.52;101362.66;5068824;28;1365;-42
2022/02/24 07:56:31;;;;;;;;;;;;;;;26.48;25.10;101371.13;5065067;28;1369;-43
2022/02/24 07:58:56;;;;;;;;;;;;;;;27.10;24.50;101373.66;5074391;28;1258;-43
2022/02/24 08:01:23;;;;;;;;;;;;;;;27.50;24.09;101373.81;5072270;28;1309;-42
2022/02/24 08:03:49;;;;;;;;;;;;;;;26.48;25.50;101368.44;5068492;28;1914;-42
2022/02/24 08:06:15;;;;;;;;;;;;;;;26.36;25.91;101375.97;5075569;28;1297;-42
2022/02/24 08:08:40;;;;;;;;;;;;;;;26.37;25.79;101375.00;5075376;28;1181;-42
2022/02/24 08:11:05;;;;;;;;;;;;;;;26.32;25.68;101380.00;5072791;28;1329;-41
2022/02/24 08:13:30;;;;;;;;;;;;;;;26.80;25.22;101368.69;5074518;28;1265;-42
2022/02/24 08:15:56;;;;;;;;;;;;;;;26.40;25.80;101374.66;5072792;28;1280;-42
2022/02/24 08:18:21;;;;;;;;;;;;;;;26.24;26.08;101370.00;5074529;28;1293;-42
2022/02/24 08:20:46;;;;;;;;;;;;;;;26.46;25.64;101366.94;5075168;28;1602;-41
2022/02/24 08:23:12;;;;;;;;;;;;;;;26.72;25.31;101374.94;5072457;28;1332;-41
2022/02/24 08:25:38;;;;;;;;;;;;;;;26.47;25.41;101372.16;5076789;28;1971;-41
2022/02/24 08:28:03;;;;;;;;;;;;;;;26.48;25.56;101370.28;5078211;28;1253;-41
2022/02/24 08:30:29;;;;;;;;;;;;;;;26.41;25.63;101370.94;5073871;28;1230;-42
2022/02/24 08:32:54;;;;;;;;;;;;;;;26.32;25.98;101371.03;5077400;28;1254;-42
2022/02/24 08:35:20;;;;;;;;;;;;;;;25.96;26.03;101370.19;5079113;28;1597;-41
2022/02/24 08:37:47;;;;;;;;;;;;;;;26.10;25.87;101371.47;5073887;28;1349;-41
2022/02/24 08:40:12;;;;;;;;;;;;;;;26.34;25.41;101363.69;5077721;28;1273;-41
2022/02/24 08:42:38;;;;;;;;;;;;;;;26.39;25.09;101372.13;5076938;28;1629;-41
2022/02/24 08:45:03;;;;;;;;;;;;;;;26.32;25.90;101369.19;5079048;28;1959;-41
2022/02/24 08:47:29;;;;;;;;;;;;;;;26.46;25.60;101378.53;5074477;28;1312;-42
2022/02/24 08:49:54;;;;;;;;;;;;;;;26.46;25.31;101373.16;5074837;28;1285;-42
2022/02/24 08:52:19;;;;;;;;;;;;;;;26.58;25.11;101370.16;5078788;28;1562;-42
2022/02/24 08:54:46;;;;;;;;;;;;;;;26.58;25.40;101368.28;5078035;28;1246;-42
2022/02/24 08:57:11;;;;;;;;;;;;;;;26.37;25.79;101361.50;5078024;28;872;-42
2022/02/24 08:59:37;;;;;;;;;;;;;;;26.11;25.54;101367.75;5078565;28;1286;-41
2022/02/24 09:02:03;;;;;;;;;;;;;;;26.17;25.39;101366.28;5076579;28;1341;-40
2022/02/24 09:04:28;;;;;;;;;;;;;;;26.24;25.95;101369.16;5076433;28;2150;-42
2022/02/24 09:06:53;;;;;;;;;;;;;;;26.14;26.45;101372.00;5070939;28;853;-40
2022/02/24 09:09:19;;;;;;;;;;;;;;;26.38;26.51;101371.28;5072410;28;1507;-42
2022/02/24 09:11:44;;;;;;;;;;;;;;;26.64;25.81;101381.13;5078358;28;1325;-42
2022/02/24 09:14:09;;;;;;;;;;;;;;;27.46;24.75;101384.09;5078429;28;1590;-42
2022/02/24 09:16:35;;;;;;;;;;;;;;;27.38;24.93;101382.25;5064761;28;1301;-41
2022/02/24 09:19:00;;;;;;;;;;;;;;;27.71;24.51;101384.09;5072568;28;1353;-42
2022/02/24 09:21:26;;;;;;;;;;;;;;;26.95;24.29;101376.13;5059331;28;1325;-42
2022/02/24 09:23:51;;;;;;;;;;;;;;;26.83;24.15;101383.69;5078653;28;1967;-42
2022/02/24 09:26:16;;;;;;;;;;;;;;;26.95;25.07;101387.78;5078777;28;1309;-42
2022/02/24 09:28:42;;;;;;;;;;;;;;;27.54;24.86;101382.44;5067133;28;1334;-43
2022/02/24 09:31:07;;;;;;;;;;;;;;;27.82;24.74;101377.50;5065840;28;1531;-42
2022/02/24 09:33:32;;;;;;;;;;;;;;;26.67;23.70;101379.13;5077264;28;1456;-44
2022/02/24 09:35:58;;;;;;;;;;;;;;;25.30;23.26;101379.50;5062706;28;1536;-44
2022/02/24 09:38:24;;;;;;;;;;;;;;;23.57;23.76;101382.56;5067468;28;1514;-43
2022/02/24 09:40:53;;;;;;;;;;;;;;;23.49;24.27;101383.25;5076043;28;1253;-44
2022/02/24 09:43:23;;;;;;;;;;;;;;;22.33;25.11;101369.38;5077105;28;1321;-43
2022/02/24 09:45:48;;;;;;;;;;;;;;;22.41;24.86;101363.31;5070910;28;1914;-43
2022/02/24 09:48:17;;;;;;;;;;;;;;;22.97;23.88;101360.25;5077743;28;1279;-43
2022/02/24 09:50:48;;;;;;;;;;;;;;;22.57;24.34;101364.66;5077190;28;885;-42
2022/02/24 09:53:13;;;;;;;;;;;;;;;23.36;23.81;101365.59;5077657;28;750;-41
2022/02/24 09:55:38;;;;;;;;;;;;;;;25.21;22.44;101369.66;5076484;28;957;-42
2022/02/24 09:58:04;;;;;;;;;;;;;;;25.52;22.28;101371.94;5068917;28;1023;-40
2022/02/24 10:00:29;;;;;;;;;;;;;;;25.47;22.73;101362.63;5066692;28;1047;-39
2022/02/24 10:02:56;;;;;;;;;;;;;;;26.04;22.39;101366.72;5066281;28;1035;-41
2022/02/24 10:05:22;;;;;;;;;;;;;;;26.07;22.22;101376.31;5071599;28;1910;-41
2022/02/24 10:07:49;;;;;;;;;;;;;;;26.55;21.57;101365.94;5077460;28;1462;-42
2022/02/24 10:10:32;;;;;;;;;;;;;;;26.73;21.30;101375.75;5073656;28;957;-43
2022/02/24 10:13:08;;;;;;;;;;;;;;;25.94;22.16;101372.22;5077331;28;1078;-44
2022/02/24 10:15:34;;;;;;;;;;;;;;;25.42;25.60;101373.88;5074401;28;1025;-43
2022/02/24 10:18:05;;;;;;;;;;;;;;;25.24;27.30;101365.81;5075495;28;936;-42
2022/02/24 10:20:35;;;;;;;;;;;;;;;25.45;29.13;101370.84;5077029;28;1004;-44
2022/02/24 10:23:00;;;;;;;;;;;;;;;25.35;29.93;101384.41;5071198;28;1149;-44
2022/02/24 10:25:25;;;;;;;;;;;;;;;25.40;27.85;101389.31;5073214;28;1901;-42
2022/02/24 10:27:52;;;;;;;;;;;;;;;24.96;26.67;101407.09;5074659;28;746;-40
2022/02/24 10:30:18;;;;;;;;;;;;;;;24.75;24.75;101392.06;5074980;28;1102;-39
2022/02/24 10:32:47;;;;;;;;;;;;;;;24.56;24.19;101399.25;5077034;28;1167;-40
2022/02/24 10:35:25;;;;;;;;;;;;;;;24.66;22.73;101412.63;5076366;28;881;-40
2022/02/24 10:37:54;;;;;;;;;;;;;;;24.81;22.28;101380.69;5075681;28;830;-40
2022/02/24 10:40:19;;;;;;;;;;;;;;;24.72;22.02;101364.59;5077014;28;1408;-43
2022/02/24 10:42:45;;;;;;;;;;;;;;;24.92;22.48;101347.34;5074826;28;1305;-43
2022/02/24 10:45:14;;;;;;;;;;;;;;;25.36;22.70;101355.66;5074976;28;1918;-42
2022/02/24 10:47:55;;;;;;;;;;;;;;;25.94;22.56;101353.38;5074623;28;1142;-41
2022/02/24 10:50:21;;;;;;;;;;;;;;;25.91;23.36;101343.72;5074003;28;1212;-41
2022/02/24 10:52:46;;;;;;;;;;;;;;;26.08;23.32;101342.97;5074385;28;1575;-42
2022/02/24 10:55:12;;;;;;;;;;;;;;;26.09;23.23;101337.41;5074840;28;1330;-43
2022/02/24 10:57:37;;;;;;;;;;;;;;;26.53;23.34;101340.97;5072456;28;1546;-42
2022/02/24 11:00:03;;;;;;;;;;;;;;;26.31;24.27;101332.44;5076366;28;1289;-42
2022/02/24 11:02:28;;;;;;;;;;;;;;;25.84;25.07;101339.16;5073035;28;1285;-42
2022/02/24 11:04:54;;;;;;;;;;;;;;;25.65;25.70;101330.28;5076421;28;1992;-43
2022/02/24 11:07:19;;;;;;;;;;;;;;;25.52;26.17;101326.13;5076168;28;1309;-43
2022/02/24 11:09:44;;;;;;;;;;;;;;;25.35;25.55;101327.88;5073835;28;1257;-42
2022/02/24 11:12:11;;;;;;;;;;;;;;;25.02;25.65;101315.00;5075977;28;1306;-42
2022/02/24 11:14:37;;;;;;;;;;;;;;;25.25;25.15;101314.50;5076067;28;1340;-41
2022/02/24 11:17:05;;;;;;;;;;;;;;;25.38;24.43;101316.78;5071472;28;1357;-41
2022/02/24 11:19:33;;;;;;;;;;;;;;;25.48;24.26;101316.66;5076003;28;1269;-42
2022/02/24 11:21:59;;;;;;;;;;;;;;;25.73;23.77;101316.00;5070873;28;1246;-44
2022/02/24 11:24:25;;;;;;;;;;;;;;;26.14;23.85;101318.06;5075253;28;1914;-45
2022/02/24 11:27:09;;;;;;;;;;;;;;;26.13;24.56;101322.59;5074959;28;1411;-45
2022/02/24 11:29:38;;;;;;;;;;;;;;;26.41;24.81;101313.44;5075550;28;1415;-45
2022/02/24 11:32:09;;;;;;;;;;;;;;;25.79;25.29;101313.50;5066754;28;1426;-45
2022/02/24 11:34:52;;;;;;;;;;;;;;;26.06;24.67;101315.34;5069502;28;1463;-43
2022/02/24 11:37:25;;;;;;;;;;;;;;;26.08;24.93;101311.47;5072286;28;1371;-43
2022/02/24 11:39:55;;;;;;;;;;;;;;;26.09;25.16;101320.41;5074978;28;1205;-43
2022/02/24 11:42:23;;;;;;;;;;;;;;;26.29;24.66;101313.72;5076127;28;1447;-44
2022/02/24 11:44:49;;;;;;;;;;;;;;;26.32;25.42;101319.81;5072659;28;1898;-44
2022/02/24 11:47:14;;;;;;;;;;;;;;;25.92;25.96;101317.63;5063851;28;1166;-43
2022/02/24 11:49:55;;;;;;;;;;;;;;;25.89;26.01;101308.00;5074861;28;1522;-45
2022/02/24 11:52:21;;;;;;;;;;;;;;;25.76;25.26;101299.50;5067455;28;1297;-45
2022/02/24 11:54:46;;;;;;;;;;;;;;;25.31;24.49;101296.84;5074273;28;1316;-45
2022/02/24 11:57:30;;;;;;;;;;;;;;;25.83;23.58;101297.88;5076174;28;896;-43
2022/02/24 11:59:56;;;;;;;;;;;;;;;25.74;24.77;101293.47;5077586;28;1444;-46
2022/02/24 12:02:38;;;;;;;;;;;;;;;26.00;25.87;101300.63;5072864;28;1285;-46
2022/02/24 12:05:04;;;;;;;;;;;;;;;26.01;26.29;101292.38;5078615;28;1902;-44
2022/02/24 12:07:29;;;;;;;;;;;;;;;25.93;26.61;101300.44;5078264;28;1381;-43
2022/02/24 12:10:10;;;;;;;;;;;;;;;26.65;25.43;101306.41;5077907;28;1182;-44
2022/02/24 12:12:36;;;;;;;;;;;;;;;26.98;24.83;101306.44;5078011;28;1341;-43
2022/02/24 12:15:02;;;;;;;;;;;;;;;27.38;24.21;101303.91;5074119;28;1499;-43
2022/02/24 12:17:28;;;;;;;;;;;;;;;27.50;23.67;101296.31;5073232;28;1195;-42
2022/02/24 12:19:55;;;;;;;;;;;;;;;27.07;23.75;101293.84;5079713;28;866;-43
2022/02/24 12:22:30;;;;;;;;;;;;;;;27.79;22.85;101296.75;5078459;28;1368;-44
2022/02/24 12:25:11;;;;;;;;;;;;;;;28.27;22.42;101292.31;5069986;28;2023;-43
2022/02/24 12:27:40;;;;;;;;;;;;;;;28.05;23.77;101292.94;5078224;28;1233;-43
2022/02/24 12:30:11;;;;;;;;;;;;;;;27.97;23.79;101291.13;5077616;28;1083;-42
2022/02/24 12:32:41;;;;;;;;;;;;;;;27.62;23.14;101283.28;5077305;28;1293;-42
2022/02/24 12:35:07;;;;;;;;;;;;;;;27.66;23.67;101282.91;5078588;28;964;-43
2022/02/24 12:37:33;;;;;;;;;;;;;;;27.51;23.90;101278.22;5077849;28;1396;-43
2022/02/24 12:39:59;;;;;;;;;;;;;;;27.55;23.88;101286.81;5073207;28;1195;-42
2022/02/24 12:42:24;;;;;;;;;;;;;;;27.67;24.04;101274.63;5077418;28;1087;-43
2022/02/24 12:44:49;;;;;;;;;;;;;;;28.02;23.44;101277.06;5077267;28;1902;-35